createdAt,value
2018-06-04T00:01:47.877Z,5.33
2018-06-04T00:04:25.752Z,4.60
2018-06-04T00:07:03.101Z,4.93
2018-06-04T00:09:40.364Z,4.80
2018-06-04T00:12:17.328Z,4.23
2018-06-04T00:14:55.197Z,4.10
2018-06-04T00:17:32.369Z,4.60
2018-06-04T00:20:08.873Z,5.10
2018-06-04T00:22:46.765Z,5.70
2018-06-04T00:25:24.052Z,5.57
2018-06-04T00:28:01.994Z,7.40
2018-06-04T00:30:39.082Z,6.37
2018-06-04T00:33:16.884Z,6.30
2018-06-04T00:35:54.329Z,6.57
2018-06-04T00:38:31.520Z,5.90
2018-06-04T00:41:08.349Z,5.13
2018-06-04T00:43:45.108Z,6.33
2018-06-04T00:46:22.784Z,4.77
2018-06-04T00:49:00.465Z,4.30
2018-06-04T00:51:37.529Z,5.30
2018-06-04T00:54:15.660Z,4.23
2018-06-04T00:56:53.248Z,3.80
2018-06-04T00:59:30.055Z,4.17
2018-06-04T01:02:07.118Z,3.67
2018-06-04T01:04:45.167Z,4.20
2018-06-04T01:07:22.395Z,4.17
2018-06-04T01:09:59.228Z,3.97
2018-06-04T01:12:36.272Z,3.20
2018-06-04T01:15:13.274Z,4.07
2018-06-04T01:17:50.078Z,3.83
2018-06-04T01:20:26.888Z,4.03
2018-06-04T01:23:03.720Z,3.73
2018-06-04T01:25:41.977Z,3.67
2018-06-04T01:28:18.464Z,3.27
2018-06-04T01:30:54.822Z,3.17
2018-06-04T01:33:31.833Z,3.77
2018-06-04T01:36:09.313Z,4.30
2018-06-04T01:38:46.474Z,4.20
2018-06-04T01:41:23.381Z,3.63
2018-06-04T01:44:00.889Z,3.53
2018-06-04T01:46:37.422Z,3.90
2018-06-04T01:49:14.916Z,4.37
2018-06-04T01:51:51.898Z,4.80
2018-06-04T01:54:28.721Z,4.30
2018-06-04T01:57:05.996Z,3.83
2018-06-04T01:59:42.143Z,3.97
2018-06-04T02:02:19.813Z,3.93
2018-06-04T02:04:56.845Z,4.50
2018-06-04T02:07:33.781Z,5.93
2018-06-04T02:10:10.933Z,5.03
2018-06-04T02:12:47.846Z,4.53
2018-06-04T02:15:24.701Z,5.27
2018-06-04T02:18:01.367Z,5.00
2018-06-04T02:20:38.594Z,4.87
2018-06-04T02:23:16.249Z,4.37
2018-06-04T02:25:53.697Z,4.77
2018-06-04T02:28:31.189Z,5.17
2018-06-04T02:31:08.392Z,5.00
2018-06-04T02:33:45.550Z,9.77
2018-06-04T02:36:22.186Z,6.70
2018-06-04T02:38:59.536Z,6.97
2018-06-04T02:41:36.566Z,5.97
2018-06-04T02:44:12.991Z,6.20
2018-06-04T02:46:50.200Z,6.30
2018-06-04T02:49:27.415Z,5.70
2018-06-04T02:52:04.376Z,6.83
2018-06-04T02:54:41.163Z,5.63
2018-06-04T02:57:18.370Z,5.47
2018-06-04T02:59:55.125Z,5.73
2018-06-04T03:02:32.054Z,5.67
2018-06-04T03:05:09.099Z,6.20
2018-06-04T03:07:45.920Z,5.77
2018-06-04T03:10:23.269Z,4.93
2018-06-04T03:13:00.365Z,5.50
2018-06-04T03:15:36.916Z,6.07
2018-06-04T03:18:13.988Z,6.70
2018-06-04T03:20:51.062Z,6.37
2018-06-04T03:23:27.838Z,5.47
2018-06-04T03:26:04.847Z,5.53
2018-06-04T03:28:41.665Z,5.40
2018-06-04T03:31:18.737Z,5.93
2018-06-04T03:33:55.539Z,6.67
2018-06-04T03:36:32.729Z,5.50
2018-06-04T03:39:09.608Z,5.67
2018-06-04T03:41:46.517Z,5.33
2018-06-04T03:44:24.262Z,5.10
2018-06-04T03:47:01.943Z,4.90
2018-06-04T03:49:38.320Z,5.90
2018-06-04T03:52:16.325Z,5.93
2018-06-04T03:54:53.141Z,5.37
2018-06-04T03:57:30.170Z,5.03
2018-06-04T04:00:07.147Z,4.50
2018-06-04T04:02:44.093Z,4.30
2018-06-04T04:05:20.582Z,5.07
2018-06-04T04:07:57.260Z,5.83
2018-06-04T04:10:34.179Z,5.30
2018-06-04T04:13:11.113Z,4.70
2018-06-04T04:15:48.140Z,4.80
2018-06-04T04:18:25.055Z,4.60
2018-06-04T04:21:02.800Z,4.20
2018-06-04T04:23:40.354Z,4.73
2018-06-04T04:26:17.222Z,5.83
2018-06-04T04:28:54.023Z,4.57
2018-06-04T04:31:31.143Z,5.30
2018-06-04T04:34:07.967Z,4.70
2018-06-04T04:36:45.376Z,5.73
2018-06-04T04:39:21.858Z,5.43
2018-06-04T04:41:59.083Z,5.67
2018-06-04T04:44:36.581Z,5.20
2018-06-04T04:47:13.089Z,5.40
2018-06-04T04:49:50.467Z,4.93
2018-06-04T04:52:27.448Z,4.00
2018-06-04T04:55:04.724Z,5.20
2018-06-04T04:57:41.827Z,5.10
2018-06-04T05:00:18.817Z,6.00
2018-06-04T05:02:55.815Z,4.20
2018-06-04T05:05:32.950Z,3.80
2018-06-04T05:08:10.009Z,4.53
2018-06-04T05:10:47.268Z,5.33
2018-06-04T05:13:23.891Z,4.93
2018-06-04T05:16:00.533Z,5.40
2018-06-04T05:18:37.755Z,5.33
2018-06-04T05:21:15.107Z,5.30
2018-06-04T05:23:51.673Z,4.93
2018-06-04T05:26:29.083Z,5.80
2018-06-04T05:29:06.216Z,5.40
2018-06-04T05:31:43.527Z,5.37
2018-06-04T05:34:20.352Z,6.53
2018-06-04T05:36:57.657Z,4.80
2018-06-04T05:39:34.773Z,6.40
2018-06-04T05:42:11.629Z,4.40
2018-06-04T05:44:48.459Z,7.00
2018-06-04T05:47:25.597Z,5.03
2018-06-04T05:50:02.440Z,4.90
2018-06-04T05:52:39.855Z,4.77
2018-06-04T05:55:16.403Z,4.90
2018-06-04T05:57:53.715Z,5.13
2018-06-04T06:00:30.364Z,4.27
2018-06-04T06:03:07.349Z,5.77
2018-06-04T06:05:43.650Z,3.80
2018-06-04T06:08:20.023Z,4.87
2018-06-04T06:10:57.673Z,4.30
2018-06-04T06:13:34.929Z,5.30
2018-06-04T06:16:12.045Z,5.07
2018-06-04T06:18:49.046Z,4.87
2018-06-04T06:21:25.807Z,4.27
2018-06-04T06:24:02.903Z,4.37
2018-06-04T06:26:39.962Z,4.87
2018-06-04T06:29:16.774Z,5.40
2018-06-04T06:31:53.911Z,5.77
2018-06-04T06:34:30.727Z,5.33
2018-06-04T06:37:07.556Z,5.60
2018-06-04T06:39:45.409Z,7.90
2018-06-04T06:42:23.053Z,6.70
2018-06-04T06:45:00.298Z,7.63
2018-06-04T06:47:37.577Z,7.90
2018-06-04T06:50:14.702Z,7.37
2018-06-04T06:52:51.675Z,7.13
2018-06-04T06:55:28.700Z,7.30
2018-06-04T06:58:05.701Z,6.00
2018-06-04T07:00:42.934Z,3.70
2018-06-04T07:03:19.971Z,4.10
2018-06-04T07:05:57.763Z,4.10
2018-06-04T07:08:34.532Z,4.20
2018-06-04T07:11:11.841Z,5.87
2018-06-04T07:13:48.771Z,5.20
2018-06-04T07:16:26.282Z,5.27
2018-06-04T07:19:02.674Z,4.43
2018-06-04T07:21:39.144Z,5.20
2018-06-04T07:24:15.681Z,4.10
2018-06-04T07:26:52.808Z,6.40
2018-06-04T07:29:29.562Z,3.93
2018-06-04T07:32:06.710Z,3.00
2018-06-04T07:34:43.297Z,2.43
2018-06-04T07:37:20.309Z,2.00
2018-06-04T07:39:57.152Z,2.00
2018-06-04T07:42:33.965Z,2.50
2018-06-04T07:45:10.998Z,2.40
2018-06-04T07:47:47.892Z,3.07
2018-06-04T07:50:25.540Z,2.57
2018-06-04T07:53:02.517Z,3.73
2018-06-04T07:55:39.271Z,3.63
2018-06-04T07:58:16.176Z,2.67
2018-06-04T08:00:53.554Z,2.27
2018-06-04T08:03:30.014Z,2.10
2018-06-04T08:06:07.081Z,2.50
2018-06-04T08:08:43.991Z,3.80
2018-06-04T08:11:21.168Z,3.23
2018-06-04T08:13:58.141Z,4.53
2018-06-04T08:16:35.327Z,5.10
2018-06-04T08:19:12.105Z,5.20
2018-06-04T08:21:48.905Z,5.80
2018-06-04T08:24:25.988Z,5.60
2018-06-04T08:27:02.983Z,6.20
2018-06-04T08:29:39.760Z,6.07
2018-06-04T08:32:17.012Z,5.90
2018-06-04T08:34:53.786Z,6.40
2018-06-04T08:37:31.263Z,5.90
2018-06-04T08:40:08.948Z,5.27
2018-06-04T08:42:45.669Z,5.40
2018-06-04T08:45:22.788Z,5.97
2018-06-04T08:48:02.736Z,5.53
2018-06-04T08:50:39.921Z,6.17
2018-06-04T08:53:17.050Z,5.77
2018-06-04T08:55:54.136Z,4.53
2018-06-04T08:58:31.416Z,5.17
2018-06-04T09:01:08.957Z,6.57
2018-06-04T09:03:46.065Z,5.93
2018-06-04T09:06:22.987Z,5.40
2018-06-04T09:08:59.844Z,5.87
2018-06-04T09:11:37.867Z,6.30
2018-06-04T09:14:15.137Z,5.70
2018-06-04T09:16:51.566Z,7.30
2018-06-04T09:19:28.776Z,6.50
2018-06-04T09:22:05.569Z,6.70
2018-06-04T09:24:42.712Z,7.47
2018-06-04T09:27:19.800Z,6.97
2018-06-04T09:29:56.726Z,5.90
2018-06-04T09:32:33.655Z,6.00
2018-06-04T09:35:10.467Z,6.67
2018-06-04T09:37:47.602Z,6.73
2018-06-04T09:40:26.261Z,7.77
2018-06-04T09:43:03.535Z,7.10
2018-06-04T09:45:40.556Z,8.40
2018-06-04T09:48:17.337Z,8.93
2018-06-04T09:50:54.228Z,8.80
2018-06-04T09:53:31.449Z,10.27
2018-06-04T09:56:08.071Z,7.83
2018-06-04T09:58:45.362Z,8.30
2018-06-04T10:01:21.817Z,9.00
2018-06-04T10:03:59.702Z,8.00
2018-06-04T10:06:36.983Z,9.00
2018-06-04T10:09:13.892Z,6.83
2018-06-04T10:11:51.489Z,8.50
2018-06-04T10:14:28.384Z,6.30
2018-06-04T10:17:05.134Z,5.80
2018-06-04T10:19:42.473Z,7.00
2018-06-04T10:22:19.412Z,6.93
2018-06-04T10:24:56.196Z,7.10
2018-06-04T10:27:33.382Z,6.43
2018-06-04T10:30:10.549Z,6.90
2018-06-04T10:32:47.444Z,7.80
2018-06-04T10:35:24.324Z,5.40
2018-06-04T10:38:01.454Z,5.07
2018-06-04T10:40:38.836Z,3.97
2018-06-04T10:43:16.068Z,4.30
2018-06-04T10:45:53.225Z,4.13
2018-06-04T10:48:30.313Z,3.90
2018-06-04T10:51:07.131Z,3.60
2018-06-04T10:53:43.905Z,4.20
2018-06-04T10:56:21.780Z,4.20
2018-06-04T10:58:58.876Z,4.20
2018-06-04T11:01:36.152Z,4.50
2018-06-04T11:04:13.085Z,4.60
2018-06-04T11:06:49.881Z,5.33
2018-06-04T11:09:26.932Z,5.40
2018-06-04T11:12:03.941Z,5.30
2018-06-04T11:14:40.934Z,6.57
2018-06-04T11:17:18.198Z,4.63
2018-06-04T11:19:54.905Z,4.90
2018-06-04T11:22:32.154Z,3.20
2018-06-04T11:25:08.801Z,3.37
2018-06-04T11:27:45.997Z,3.17
2018-06-04T11:30:22.946Z,2.53
2018-06-04T11:33:00.945Z,3.17
2018-06-04T11:35:37.642Z,2.20
2018-06-04T11:38:14.789Z,3.20
2018-06-04T11:40:51.960Z,2.50
2018-06-04T11:43:28.824Z,3.07
2018-06-04T11:46:05.640Z,3.40
2018-06-04T11:48:42.938Z,2.90
2018-06-04T11:51:19.927Z,7.53
2018-06-04T11:53:56.960Z,3.63
2018-06-04T11:56:34.483Z,2.63
2018-06-04T11:59:11.284Z,2.77
2018-06-04T12:01:49.103Z,2.27
2018-06-04T12:04:26.064Z,1.83
2018-06-04T12:07:03.137Z,1.70
2018-06-04T12:09:40.116Z,1.20
2018-06-04T12:12:16.938Z,1.30
2018-06-04T12:14:55.012Z,1.73
2018-06-04T12:17:32.184Z,1.37
2018-06-04T12:20:11.001Z,1.70
2018-06-04T12:22:51.186Z,2.10
2018-06-04T12:25:28.647Z,1.67
2018-06-04T12:28:06.055Z,1.87
2018-06-04T12:30:43.131Z,1.30
2018-06-04T12:33:19.958Z,2.10
2018-06-04T12:35:57.161Z,1.50
2018-06-04T12:38:33.885Z,1.33
2018-06-04T12:41:10.762Z,1.57
2018-06-04T12:43:47.829Z,2.00
2018-06-04T12:46:27.350Z,1.40
2018-06-04T12:49:04.167Z,1.10
2018-06-04T12:51:41.275Z,1.93
2018-06-04T12:54:17.843Z,1.40
2018-06-04T12:56:54.755Z,2.20
2018-06-04T12:59:31.972Z,1.33
2018-06-04T13:02:09.365Z,1.20
2018-06-04T13:04:46.810Z,1.63
2018-06-04T13:07:23.828Z,2.20
2018-06-04T13:10:00.596Z,2.10
2018-06-04T13:12:37.435Z,2.10
2018-06-04T13:15:14.258Z,1.63
2018-06-04T13:17:51.563Z,1.80
2018-06-04T13:20:28.863Z,2.60
2018-06-04T13:23:05.663Z,1.70
2018-06-04T13:25:42.550Z,2.20
2018-06-04T13:28:19.282Z,3.00
2018-06-04T13:30:56.425Z,2.10
2018-06-04T13:33:33.503Z,1.67
2018-06-04T13:36:10.503Z,2.70
2018-06-04T13:38:47.155Z,1.60
2018-06-04T13:41:24.274Z,1.80
2018-06-04T13:44:01.251Z,5.43
2018-06-04T13:46:39.240Z,2.00
2018-06-04T13:49:16.674Z,1.63
2018-06-04T13:51:53.872Z,2.23
2018-06-04T13:54:30.972Z,2.10
2018-06-04T13:57:07.663Z,1.47
2018-06-04T13:59:44.801Z,1.40
2018-06-04T14:02:21.838Z,1.60
2018-06-04T14:04:58.661Z,2.53
2018-06-04T14:07:35.325Z,1.53
2018-06-04T14:10:12.420Z,2.77
2018-06-04T14:12:49.927Z,1.63
2018-06-04T14:15:30.715Z,2.00
2018-06-04T14:18:07.632Z,2.70
2018-06-04T14:20:44.422Z,1.93
2018-06-04T14:23:21.712Z,1.60
2018-06-04T14:25:58.487Z,2.00
2018-06-04T14:28:34.919Z,2.87
2018-06-04T14:31:11.553Z,1.80
2018-06-04T14:33:48.407Z,1.50
2018-06-04T14:36:25.441Z,2.23
2018-06-04T14:39:02.921Z,1.57
2018-06-04T14:41:40.050Z,2.00
2018-06-04T14:44:16.942Z,1.47
2018-06-04T14:46:54.314Z,1.47
2018-06-04T14:49:32.190Z,2.63
2018-06-04T14:52:08.834Z,2.60
2018-06-04T14:54:46.171Z,1.60
2018-06-04T14:57:23.346Z,2.47
2018-06-04T14:59:59.899Z,1.70
2018-06-04T15:02:37.489Z,2.57
2018-06-04T15:05:14.270Z,1.60
2018-06-04T15:07:51.111Z,1.70
2018-06-04T15:10:28.255Z,2.40
2018-06-04T15:13:05.360Z,3.37
2018-06-04T15:15:42.455Z,2.43
2018-06-04T15:18:19.327Z,1.80
2018-06-04T15:20:56.659Z,1.80
2018-06-04T15:23:33.824Z,1.70
2018-06-04T15:26:11.319Z,2.63
2018-06-04T15:28:48.308Z,2.83
2018-06-04T15:31:25.548Z,2.00
2018-06-04T15:34:02.494Z,2.30
2018-06-04T15:36:39.876Z,2.30
2018-06-04T15:39:18.308Z,2.17
2018-06-04T15:41:55.189Z,2.07
2018-06-04T15:44:33.084Z,1.90
2018-06-04T15:47:10.465Z,2.17
2018-06-04T15:49:47.356Z,2.33
2018-06-04T15:52:24.764Z,2.03
2018-06-04T15:55:02.510Z,1.90
2018-06-04T15:57:41.465Z,2.07
2018-06-04T16:00:18.649Z,1.53
2018-06-04T16:02:55.737Z,2.93
2018-06-04T16:05:32.739Z,1.90
2018-06-04T16:08:09.875Z,1.70
2018-06-04T16:10:47.159Z,2.27
2018-06-04T16:13:24.817Z,2.20
2018-06-04T16:16:02.197Z,2.90
2018-06-04T16:18:38.471Z,2.47
2018-06-04T16:21:14.749Z,9.20
2018-06-04T16:23:52.161Z,2.63
2018-06-04T16:26:29.231Z,2.77
2018-06-04T16:29:07.024Z,2.30
2018-06-04T16:31:45.919Z,2.07
2018-06-04T16:34:25.212Z,2.80
2018-06-04T16:37:02.433Z,2.13
2018-06-04T16:39:39.589Z,3.20
2018-06-04T16:42:17.736Z,6.00
2018-06-04T16:44:58.830Z,2.20
2018-06-04T16:47:36.896Z,3.27
2018-06-04T16:50:14.068Z,3.20
2018-06-04T16:52:52.260Z,3.80
2018-06-04T16:55:29.845Z,2.93
2018-06-04T16:58:07.855Z,2.53
2018-06-04T17:00:44.947Z,2.40
2018-06-04T17:03:23.247Z,3.07
2018-06-04T17:06:01.504Z,3.07
2018-06-04T17:08:39.916Z,3.13
2018-06-04T17:11:17.720Z,3.10
2018-06-04T17:13:54.737Z,2.10
2018-06-04T17:16:31.716Z,3.50
2018-06-04T17:19:08.391Z,3.40
2018-06-04T17:21:45.345Z,2.90
2018-06-04T17:24:22.540Z,2.50
2018-06-04T17:27:00.105Z,2.33
2018-06-04T17:29:37.567Z,3.00
2018-06-04T17:35:30.152Z,2.73
2018-06-04T17:38:08.771Z,2.40
2018-06-04T17:40:47.152Z,10.33
2018-06-04T17:43:24.137Z,2.60
2018-06-04T17:46:02.313Z,4.40
2018-06-04T17:48:39.663Z,3.00
2018-06-04T17:51:17.037Z,4.87
2018-06-04T17:53:52.906Z,4.93
2018-06-04T17:56:30.333Z,2.63
2018-06-04T17:59:07.518Z,2.40
2018-06-04T18:01:44.717Z,3.07
2018-06-04T18:04:21.946Z,3.40
2018-06-04T18:06:59.905Z,2.60
2018-06-04T18:09:39.055Z,2.10
2018-06-04T18:12:18.351Z,2.50
2018-06-04T18:15:10.760Z,2.80
2018-06-04T18:17:47.432Z,2.37
2018-06-04T18:20:25.040Z,1.80
2018-06-04T18:23:01.743Z,3.17
2018-06-04T18:25:39.001Z,3.30
2018-06-04T18:28:17.454Z,1.80
2018-06-04T18:30:54.263Z,1.73
2018-06-04T18:33:32.531Z,2.93
2018-06-04T18:36:09.390Z,2.10
2018-06-04T18:38:46.936Z,2.60
2018-06-04T18:41:23.785Z,2.07
2018-06-04T18:44:00.890Z,2.50
2018-06-04T18:46:38.047Z,2.87
2018-06-04T18:49:15.064Z,2.50
2018-06-04T18:54:58.909Z,2.87
2018-06-04T18:57:36.343Z,2.43
2018-06-04T19:00:13.375Z,2.50
2018-06-04T19:02:51.866Z,2.20
2018-06-04T19:05:29.269Z,2.97
2018-06-04T19:08:06.165Z,2.73
2018-06-04T19:13:47.548Z,2.93
2018-06-04T19:16:24.974Z,2.67
2018-06-04T19:19:02.716Z,2.57
2018-06-04T19:21:39.879Z,2.37
2018-06-04T19:24:17.343Z,2.60
2018-06-04T19:26:53.500Z,2.50
2018-06-04T19:29:30.820Z,2.73
2018-06-04T19:32:09.675Z,2.30
2018-06-04T19:34:46.750Z,3.37
2018-06-04T19:37:23.807Z,2.60
2018-06-04T19:40:00.434Z,3.00
2018-06-04T19:42:37.163Z,2.57
2018-06-04T19:45:14.086Z,3.10
2018-06-04T19:47:51.557Z,3.20
2018-06-04T19:50:29.324Z,2.60
2018-06-04T19:53:06.978Z,2.93
2018-06-04T19:55:44.325Z,3.13
2018-06-04T19:58:21.009Z,2.60
2018-06-04T20:00:58.096Z,3.50
2018-06-04T20:03:35.020Z,3.23
2018-06-04T20:06:11.705Z,3.63
2018-06-04T20:08:48.876Z,4.63
2018-06-04T20:11:25.686Z,3.50
2018-06-04T20:14:02.636Z,4.80
2018-06-04T20:16:39.649Z,3.47
2018-06-04T20:19:16.145Z,3.33
2018-06-04T20:21:53.048Z,3.60
2018-06-04T20:24:31.036Z,3.57
2018-06-04T20:27:08.128Z,11.70
2018-06-04T20:29:44.543Z,12.80
2018-06-04T20:32:21.312Z,2.97
2018-06-04T20:34:58.034Z,3.30
2018-06-04T20:37:35.135Z,2.80
2018-06-04T20:40:11.551Z,2.67
2018-06-04T20:42:48.492Z,2.93
2018-06-04T20:45:25.354Z,2.90
2018-06-04T20:48:02.256Z,2.43
2018-06-04T20:50:40.713Z,2.53
2018-06-04T20:53:18.076Z,3.67
2018-06-04T20:55:55.274Z,4.03
2018-06-04T20:58:31.754Z,3.00
2018-06-04T21:01:08.896Z,3.37
2018-06-04T21:03:45.997Z,2.43
2018-06-04T21:06:23.276Z,2.67
2018-06-04T21:09:00.017Z,2.40
2018-06-04T21:11:36.792Z,2.87
2018-06-04T21:14:13.987Z,3.83
2018-06-04T21:16:50.959Z,3.33
2018-06-04T21:19:27.321Z,2.73
2018-06-04T21:22:04.114Z,2.97
2018-06-04T21:24:41.247Z,2.97
2018-06-04T21:27:17.924Z,2.87
2018-06-04T21:29:54.909Z,3.10
2018-06-04T21:32:31.820Z,4.37
2018-06-04T21:35:08.532Z,3.70
2018-06-04T21:37:45.116Z,2.93
2018-06-04T21:40:22.328Z,3.47
2018-06-04T21:43:00.462Z,4.07
2018-06-04T21:45:36.872Z,2.90
2018-06-04T21:48:13.935Z,3.40
2018-06-04T21:50:50.758Z,2.83
2018-06-04T21:53:27.789Z,4.35
2018-06-04T21:56:04.581Z,3.93
2018-06-04T21:58:43.479Z,4.20
2018-06-04T22:01:20.510Z,4.40
2018-06-04T22:03:57.433Z,5.13
2018-06-04T22:06:34.612Z,4.30
2018-06-04T22:09:11.909Z,4.87
2018-06-04T22:11:49.170Z,3.90
2018-06-04T22:14:25.891Z,5.47
2018-06-04T22:17:05.938Z,4.90
2018-06-04T22:19:42.796Z,4.83
2018-06-04T22:22:19.403Z,4.20
2018-06-04T22:24:56.851Z,4.50
2018-06-04T22:27:33.783Z,4.07
2018-06-04T22:30:10.230Z,4.53
2018-06-04T22:32:48.569Z,4.73
2018-06-04T22:35:26.328Z,4.90
2018-06-04T22:38:03.718Z,4.47
2018-06-04T22:40:41.533Z,5.37
2018-06-04T22:43:18.717Z,5.13
2018-06-04T22:45:55.799Z,4.37
2018-06-04T22:48:33.704Z,4.00
2018-06-04T22:51:11.182Z,4.53
2018-06-04T22:53:48.309Z,3.30
2018-06-04T22:56:24.885Z,3.87
2018-06-04T22:59:01.244Z,3.47
2018-06-04T23:01:39.728Z,3.30
2018-06-04T23:04:17.459Z,4.10
2018-06-04T23:06:55.264Z,3.53
2018-06-04T23:09:33.612Z,3.50
2018-06-04T23:12:11.072Z,3.90
2018-06-04T23:14:47.900Z,3.90
2018-06-04T23:17:26.631Z,3.47
2018-06-04T23:20:03.808Z,4.30
2018-06-04T23:22:41.291Z,4.33
2018-06-04T23:25:18.661Z,5.00
2018-06-04T23:27:55.307Z,3.90
2018-06-04T23:30:32.320Z,3.50
2018-06-04T23:33:09.306Z,3.37
2018-06-04T23:35:46.000Z,4.40
2018-06-04T23:38:23.175Z,4.37
2018-06-04T23:41:00.872Z,4.13
2018-06-04T23:43:37.050Z,4.10
2018-06-04T23:46:14.619Z,4.30
2018-06-04T23:48:51.212Z,5.07
2018-06-04T23:51:28.139Z,3.90
2018-06-04T23:54:05.070Z,4.20
2018-06-04T23:56:41.924Z,4.80
2018-06-04T23:59:19.480Z,4.50
